createdAt,value
2023-02-02T00:04:25.008Z,100042.91
2023-02-02T00:09:30.124Z,100035.59
2023-02-02T00:14:32.971Z,100047.81
2023-02-02T00:19:35.742Z,100051.22
2023-02-02T00:24:39.840Z,100049.00
2023-02-02T00:29:42.695Z,100055.59
2023-02-02T00:34:45.527Z,100049.72
2023-02-02T00:39:49.650Z,100054.59
2023-02-02T00:45:12.105Z,100054.72
2023-02-02T00:50:15.934Z,100051.81
2023-02-02T00:55:20.492Z,100050.09
2023-02-02T01:00:24.553Z,100042.31
2023-02-02T01:05:27.347Z,100044.47
2023-02-02T01:10:33.821Z,100045.66
2023-02-02T01:15:37.687Z,100045.66
2023-02-02T01:20:40.509Z,100039.84
2023-02-02T01:25:44.963Z,100032.78
2023-02-02T01:30:47.991Z,100028.84
2023-02-02T01:35:51.976Z,100034.19
2023-02-02T01:40:56.926Z,100035.16
2023-02-02T01:45:59.946Z,100039.47
2023-02-02T01:51:04.191Z,100034.03
2023-02-02T01:56:08.664Z,100033.59
2023-02-02T02:01:11.580Z,100041.34
2023-02-02T02:06:16.928Z,100040.91
2023-02-02T02:11:21.248Z,100049.16
2023-02-02T02:16:31.368Z,100053.44
2023-02-02T02:22:09.216Z,100057.09
2023-02-02T02:27:38.413Z,100050.38
2023-02-02T02:32:45.522Z,100048.06
2023-02-02T02:37:50.016Z,100061.47
2023-02-02T02:42:56.079Z,100055.72
2023-02-02T02:48:00.681Z,100053.50
2023-02-02T02:53:07.002Z,100056.53
2023-02-02T02:58:11.773Z,100065.25
2023-02-02T03:03:20.843Z,100073.88
2023-02-02T03:08:26.070Z,100064.13
2023-02-02T03:13:29.155Z,100083.59
2023-02-02T03:18:33.816Z,100079.34
2023-02-02T03:23:36.608Z,100086.75
2023-02-02T03:28:39.656Z,100067.16
2023-02-02T03:33:43.867Z,100085.06
2023-02-02T03:38:46.641Z,100086.97
2023-02-02T03:43:49.492Z,100090.72
2023-02-02T03:48:53.675Z,100093.06
2023-02-02T03:53:56.517Z,100102.28
2023-02-02T03:58:59.235Z,100118.34
2023-02-02T04:04:03.393Z,100113.09
2023-02-02T04:09:06.161Z,100115.91
2023-02-02T04:14:09.020Z,100128.56
2023-02-02T04:19:14.032Z,100138.28
2023-02-02T04:24:16.847Z,100146.31
2023-02-02T04:29:19.659Z,100150.47
2023-02-02T04:34:23.835Z,100148.41
2023-02-02T04:39:26.581Z,100162.44
2023-02-02T04:44:29.459Z,100164.75
2023-02-02T04:49:33.605Z,100165.72
2023-02-02T04:54:36.366Z,100176.44
2023-02-02T04:59:41.930Z,100193.34
2023-02-02T05:04:47.010Z,100199.47
2023-02-02T05:09:49.813Z,100213.47
2023-02-02T05:14:52.801Z,100209.22
2023-02-02T05:19:57.086Z,100205.56
2023-02-02T05:24:59.885Z,100224.84
2023-02-02T05:30:02.749Z,100228.50
2023-02-02T05:35:08.487Z,100242.19
2023-02-02T05:40:12.454Z,100245.97
2023-02-02T05:45:15.458Z,100246.06
2023-02-02T05:50:19.802Z,100257.94
2023-02-02T05:55:22.895Z,100258.16
2023-02-02T06:00:26.067Z,100271.78
2023-02-02T06:05:30.240Z,100275.63
2023-02-02T06:10:33.093Z,100287.41
2023-02-02T06:15:36.125Z,100296.50
2023-02-02T06:20:40.266Z,100301.44
2023-02-02T06:25:43.179Z,100299.81
2023-02-02T06:30:46.115Z,100301.09
2023-02-02T06:35:50.280Z,100301.28
2023-02-02T06:40:53.230Z,100301.41
2023-02-02T06:45:56.245Z,100300.72
2023-02-02T06:51:00.697Z,100311.88
2023-02-02T06:56:04.301Z,100311.13
2023-02-02T07:01:08.342Z,100317.53
2023-02-02T07:06:17.120Z,100329.28
2023-02-02T07:11:19.975Z,100343.75
2023-02-02T07:16:23.124Z,100341.25
2023-02-02T07:21:28.316Z,100345.97
2023-02-02T07:26:31.271Z,100356.03
2023-02-02T07:31:36.334Z,100351.81
2023-02-02T07:36:41.043Z,100362.72
2023-02-02T07:41:44.206Z,100368.19
2023-02-02T07:46:59.529Z,100370.19
2023-02-02T07:52:03.856Z,100372.09
2023-02-02T07:57:06.644Z,100372.31
2023-02-02T08:02:10.482Z,100372.53
2023-02-02T08:07:15.147Z,100378.66
2023-02-02T08:12:18.295Z,100385.22
2023-02-02T08:17:23.080Z,100395.75
2023-02-02T08:22:27.286Z,100409.63
2023-02-02T08:27:30.091Z,100423.97
2023-02-02T08:32:32.879Z,100423.97
2023-02-02T08:37:37.063Z,100421.97
2023-02-02T08:42:39.953Z,100418.69
2023-02-02T08:47:42.964Z,100429.00
2023-02-02T08:52:47.417Z,100424.31
2023-02-02T08:57:50.274Z,100433.28
2023-02-02T09:02:53.039Z,100429.19
2023-02-02T09:07:57.176Z,100434.28
2023-02-02T09:13:00.168Z,100440.81
2023-02-02T09:18:02.978Z,100447.31
2023-02-02T09:23:07.310Z,100448.94
2023-02-02T09:28:10.136Z,100458.91
2023-02-02T09:33:12.998Z,100461.06
2023-02-02T09:38:17.155Z,100460.53
2023-02-02T09:43:28.138Z,100458.25
2023-02-02T09:48:33.687Z,100469.22
2023-02-02T09:53:54.626Z,100484.53
2023-02-02T09:59:06.894Z,100470.16
2023-02-02T10:04:19.411Z,100478.97
2023-02-02T10:09:29.800Z,100482.91
2023-02-02T10:14:36.107Z,100487.22
2023-02-02T10:19:39.033Z,100491.50
2023-02-02T10:24:43.313Z,100490.31
2023-02-02T10:29:49.588Z,100495.22
2023-02-02T10:35:14.269Z,100495.97
2023-02-02T10:40:24.677Z,100491.03
2023-02-02T10:45:27.785Z,100491.91
2023-02-02T10:50:30.841Z,100497.38
2023-02-02T10:55:38.865Z,100507.44
2023-02-02T11:00:45.442Z,100516.34
2023-02-02T11:06:05.740Z,100514.63
2023-02-02T11:11:14.207Z,100514.63
2023-02-02T11:16:32.566Z,100518.94
2023-02-02T11:21:42.207Z,100527.16
2023-02-02T11:26:47.411Z,100542.28
2023-02-02T11:31:50.315Z,100541.00
2023-02-02T11:37:03.873Z,100546.91
2023-02-02T11:42:08.917Z,100556.84
2023-02-02T11:47:19.370Z,100554.41
2023-02-02T11:52:23.221Z,100547.28
2023-02-02T11:57:28.340Z,100545.91
2023-02-02T12:02:31.593Z,100550.72
2023-02-02T12:07:34.461Z,100551.56
2023-02-02T12:12:43.542Z,100563.38
2023-02-02T12:17:46.606Z,100571.88
2023-02-02T12:23:01.873Z,100577.91
2023-02-02T12:28:11.234Z,100593.53
2023-02-02T12:33:21.951Z,100605.00
2023-02-02T12:38:30.473Z,100596.66
2023-02-02T12:43:39.852Z,100583.78
2023-02-02T12:48:56.738Z,100591.47
2023-02-02T12:54:34.189Z,100610.03
2023-02-02T13:00:02.294Z,100610.25
2023-02-02T13:05:22.784Z,100603.06
2023-02-02T13:10:27.741Z,100611.31
2023-02-02T13:15:34.459Z,100624.72
2023-02-02T13:20:39.034Z,100639.31
2023-02-02T13:25:45.231Z,100636.06
2023-02-02T13:30:49.455Z,100629.22
2023-02-02T13:35:53.994Z,100635.34
2023-02-02T13:40:57.639Z,100651.31
2023-02-02T13:46:10.286Z,100653.25
2023-02-02T13:51:44.695Z,100661.41
2023-02-02T13:56:51.036Z,100674.69
2023-02-02T14:01:56.201Z,100686.75
2023-02-02T14:07:00.336Z,100684.06
2023-02-02T14:12:04.472Z,100685.22
2023-02-02T14:17:09.356Z,100702.25
2023-02-02T14:22:19.813Z,100700.03
2023-02-02T14:27:54.664Z,100705.16
2023-02-02T14:33:26.889Z,100712.56
2023-02-02T14:38:56.861Z,100719.88
2023-02-02T14:43:59.792Z,100729.75
2023-02-02T14:49:15.547Z,100743.03
2023-02-02T14:54:21.497Z,100739.41
2023-02-02T14:59:25.635Z,100754.41
2023-02-02T15:04:30.267Z,100751.84
2023-02-02T15:09:37.629Z,100774.28
2023-02-02T15:14:43.044Z,100776.09
2023-02-02T15:19:49.708Z,100787.91
2023-02-02T15:24:53.062Z,100796.91
2023-02-02T15:29:57.470Z,100812.34
2023-02-02T15:35:02.903Z,100815.88
2023-02-02T15:40:06.477Z,100824.03
2023-02-02T15:45:31.018Z,100837.78
2023-02-02T15:50:35.491Z,100855.75
2023-02-02T15:55:38.441Z,100857.69
2023-02-02T16:00:42.032Z,100872.81
2023-02-02T16:05:47.632Z,100882.91
2023-02-02T16:10:50.819Z,100903.59
2023-02-02T16:16:00.876Z,100917.56
2023-02-02T16:21:08.083Z,100926.78
2023-02-02T16:26:13.441Z,100943.81
2023-02-02T16:31:16.569Z,100946.41
2023-02-02T16:36:25.678Z,100952.22
2023-02-02T16:41:32.175Z,100964.56
2023-02-02T16:46:45.599Z,100977.13
2023-02-02T16:51:50.634Z,100976.06
2023-02-02T16:56:53.567Z,100982.16
2023-02-02T17:01:57.957Z,100992.78
2023-02-02T17:07:08.683Z,101002.47
2023-02-02T17:12:33.892Z,101014.25
2023-02-02T17:17:37.487Z,101021.00
2023-02-02T17:22:42.782Z,101032.22
2023-02-02T17:27:45.599Z,101043.03
2023-02-02T17:32:48.396Z,101045.16
2023-02-02T17:37:53.546Z,101056.34
2023-02-02T17:42:56.506Z,101061.41
2023-02-02T17:47:59.832Z,101067.72
2023-02-02T17:53:04.062Z,101070.63
2023-02-02T17:58:06.945Z,101064.41
2023-02-02T18:03:11.984Z,101070.63
2023-02-02T18:08:16.253Z,101074.44
2023-02-02T18:13:20.245Z,101079.78
2023-02-02T18:18:23.054Z,101075.97
2023-02-02T18:23:27.251Z,101067.06
2023-02-02T18:28:30.167Z,101072.22
2023-02-02T18:33:32.964Z,101075.66
2023-02-02T18:38:37.155Z,101071.16
2023-02-02T18:43:39.958Z,101088.59
2023-02-02T18:48:42.891Z,101083.91
2023-02-02T18:53:47.362Z,101086.50
2023-02-02T18:58:50.192Z,101082.25
2023-02-02T19:03:53.853Z,101081.97
2023-02-02T19:08:57.998Z,101078.31
2023-02-02T19:14:00.729Z,101069.34
2023-02-02T19:19:07.126Z,101074.50
2023-02-02T19:24:13.591Z,101079.88
2023-02-02T19:29:19.300Z,101088.78
2023-02-02T19:34:22.521Z,101079.88
2023-02-02T19:39:28.234Z,101078.03
2023-02-02T19:44:31.739Z,101068.06
2023-02-02T19:49:35.525Z,101067.97
2023-02-02T19:54:40.455Z,101067.09
2023-02-02T19:59:43.679Z,101077.44
2023-02-02T20:04:46.479Z,101084.81
2023-02-02T20:09:51.652Z,101089.78
2023-02-02T20:14:54.612Z,101087.22
2023-02-02T20:19:57.376Z,101091.06
2023-02-02T20:25:03.181Z,101114.81
2023-02-02T20:30:18.820Z,101118.72
2023-02-02T20:35:24.696Z,101114.63
2023-02-02T20:40:29.727Z,101122.75
2023-02-02T20:45:32.659Z,101114.41
2023-02-02T20:50:35.448Z,101111.84
2023-02-02T20:55:39.558Z,101103.78
2023-02-02T21:00:42.314Z,101093.34
2023-02-02T21:05:45.222Z,101091.63
2023-02-02T21:10:49.378Z,101092.88
2023-02-02T21:15:52.251Z,101089.31
2023-02-02T21:20:55.075Z,101083.03
2023-02-02T21:25:59.236Z,101076.75
2023-02-02T21:31:02.632Z,101087.59
2023-02-02T21:36:20.303Z,101084.63
2023-02-02T21:41:24.507Z,101089.13
2023-02-02T21:46:30.646Z,101072.81
2023-02-02T21:51:34.832Z,101087.69
2023-02-02T21:56:39.911Z,101078.44
2023-02-02T22:01:42.836Z,101076.41
2023-02-02T22:06:46.363Z,101068.47
2023-02-02T22:11:52.129Z,101066.09
2023-02-02T22:16:57.433Z,101066.81
2023-02-02T22:22:16.009Z,101055.50
2023-02-02T22:27:24.443Z,101052.81
2023-02-02T22:32:27.221Z,101054.47
2023-02-02T22:37:30.019Z,101036.06
2023-02-02T22:42:34.198Z,101044.22
2023-02-02T22:47:37.012Z,101035.63
2023-02-02T22:52:39.869Z,101038.38
2023-02-02T22:57:44.064Z,101033.53
2023-02-02T23:02:46.927Z,101038.13
2023-02-02T23:07:49.806Z,101033.34
2023-02-02T23:12:55.078Z,101024.94
2023-02-02T23:17:57.840Z,101044.94
2023-02-02T23:23:00.667Z,101035.91
2023-02-02T23:28:05.087Z,101041.50
2023-02-02T23:33:07.982Z,101038.50
2023-02-02T23:38:10.755Z,101038.59
2023-02-02T23:43:14.960Z,101035.16
2023-02-02T23:48:18.471Z,101025.28
2023-02-02T23:53:21.265Z,101016.38
2023-02-02T23:58:25.547Z,101018.97
